PWSweather.com
Personal Weather Stations
Station Observations
WD4JKH
Forsyth, GA 31029

Forsyth, GA 31029

Lat: 33.033225, Lon: -83.927995

Elevation: 709

Station Type: Davis Vantage VUE

High Low Average
Temperature 56.1°F13.4°C 51.2°F10.7°C 53.6°F12.0°C
Dew Point 55.8°F13.2°C 50.3°F10.2°C 53.0°F11.7°C
Winds 4.2 mph 6.8 kmh Calm Calm 1.0 mph E1.6 kmh E
Wind Gusts 10.0 mph16.1 kmh 1.0 mph1.6 kmh 3.0 mph4.8 kmh
Humidity 99% 96% 98%
Pressure 30.22 in1023.4 mb 30.13 in1020.3 mb -
Precipitation 0.22 in5.6 mm - -
Hour Temp Dew Point Humidity Winds Wind Gusts Pressure Precip Precip Rate Daily Precip Total
12:04 AM 57.6°F14.2°C 56.7°F13.7°C 97% 1.1 mph N1.8 kmh N 2.0 mph3.2 kmh 30.18 in1022.0 mb 0.09 in2.3 mm 1.35 in34.3 mm 0.27 in6.9 mm
12:09 AM 57.1°F13.9°C 55.9°F13.3°C 96% Calm Calm 2.0 mph3.2 kmh 30.19 in1022.4 mb 0.06 in1.5 mm 0.00 in0.0 mm 0.27 in6.9 mm
12:14 AM 56.3°F13.5°C 54.8°F12.7°C 95% Calm Calm 2.0 mph3.2 kmh 30.19 in1022.4 mb 0.02 in0.5 mm 0.00 in0.0 mm 0.27 in6.9 mm
12:19 AM 55.4°F13.0°C 54.0°F12.2°C 95% 1.0 mph NW1.6 kmh NW 2.0 mph3.2 kmh 30.19 in1022.4 mb 0.02 in0.5 mm 0.00 in0.0 mm 0.27 in6.9 mm
12:24 AM 54.9°F12.7°C 53.2°F11.8°C 94% Calm Calm 2.0 mph3.2 kmh 30.19 in1022.4 mb 0.03 in0.8 mm 0.12 in3.0 mm 0.28 in7.1 mm
12:29 AM 54.6°F12.6°C 52.9°F11.6°C 94% Calm Calm 2.0 mph3.2 kmh 30.19 in1022.4 mb 0.03 in0.8 mm 0.00 in0.0 mm 0.28 in7.1 mm
12:34 AM 54.4°F12.4°C 53.0°F11.7°C 95% 1.4 mph NW2.3 kmh NW 3.0 mph4.8 kmh 30.20 in1022.7 mb 0.03 in0.8 mm 0.00 in0.0 mm 0.29 in7.4 mm
12:39 AM 54.3°F12.4°C 52.9°F11.6°C 95% Calm Calm 3.0 mph4.8 kmh 30.19 in1022.4 mb 0.04 in1.0 mm 0.12 in3.0 mm 0.30 in7.6 mm
12:44 AM 54.2°F12.3°C 52.8°F11.6°C 95% 1.0 mph NW1.6 kmh NW 3.0 mph4.8 kmh 30.19 in1022.4 mb 0.04 in1.0 mm 0.00 in0.0 mm 0.30 in7.6 mm
12:49 AM 53.9°F12.2°C 52.5°F11.4°C 95% 1.7 mph NW2.7 kmh NW 4.0 mph6.4 kmh 30.20 in1022.7 mb 0.04 in1.0 mm 0.00 in0.0 mm 0.30 in7.6 mm
12:54 AM 53.8°F12.1°C 52.7°F11.5°C 96% 1.1 mph NW1.8 kmh NW 5.0 mph8.0 kmh 30.20 in1022.7 mb 0.04 in1.0 mm 0.00 in0.0 mm 0.30 in7.6 mm
12:59 AM 53.7°F12.1°C 52.6°F11.4°C 96% 2.5 mph NNW4.0 kmh NNW 6.0 mph9.7 kmh 30.20 in1022.7 mb 0.04 in1.0 mm 0.00 in0.0 mm 0.30 in7.6 mm
01:04 AM 53.6°F12.0°C 52.5°F11.4°C 96% 1.6 mph NNW2.6 kmh NNW 6.0 mph9.7 kmh 30.19 in1022.4 mb 0.03 in0.8 mm 0.00 in0.0 mm 0.11 in2.8 mm
01:09 AM 53.4°F11.9°C 52.3°F11.3°C 96% 1.4 mph NNW2.3 kmh NNW 6.0 mph9.7 kmh 30.19 in1022.4 mb 0.03 in0.8 mm 0.00 in0.0 mm 0.11 in2.8 mm
01:14 AM 53.3°F11.8°C 52.2°F11.2°C 96% 1.4 mph NNW2.3 kmh NNW 6.0 mph9.7 kmh 30.20 in1022.7 mb 0.03 in0.8 mm 0.00 in0.0 mm 0.11 in2.8 mm
01:19 AM 53.2°F11.8°C 52.1°F11.2°C 96% Calm Calm 5.0 mph8.0 kmh 30.19 in1022.4 mb 0.03 in0.8 mm 0.00 in0.0 mm 0.11 in2.8 mm
01:24 AM 53.2°F11.8°C 52.1°F11.2°C 96% 1.0 mph NNE1.6 kmh NNE 4.0 mph6.4 kmh 30.19 in1022.4 mb 0.02 in0.5 mm 0.00 in0.0 mm 0.11 in2.8 mm
01:29 AM 53.0°F11.7°C 51.9°F11.1°C 96% 1.4 mph N2.3 kmh N 4.0 mph6.4 kmh 30.19 in1022.4 mb 0.02 in0.5 mm 0.00 in0.0 mm 0.11 in2.8 mm
01:34 AM 52.9°F11.6°C 51.8°F11.0°C 96% Calm Calm 4.0 mph6.4 kmh 30.19 in1022.4 mb 0.01 in0.3 mm 0.00 in0.0 mm 0.11 in2.8 mm
01:39 AM 52.8°F11.6°C 51.7°F10.9°C 96% 1.0 mph N1.6 kmh N 4.0 mph6.4 kmh 30.19 in1022.4 mb 0.00 in0.0 mm 0.00 in0.0 mm 0.11 in2.8 mm
01:44 AM 52.7°F11.5°C 51.6°F10.9°C 96% 1.0 mph N1.6 kmh N 4.0 mph6.4 kmh 30.18 in1022.0 mb 0.00 in0.0 mm 0.00 in0.0 mm 0.11 in2.8 mm
01:49 AM 52.7°F11.5°C 51.8°F11.0°C 97% 1.4 mph NNE2.3 kmh NNE 2.0 mph3.2 kmh 30.18 in1022.0 mb 0.00 in0.0 mm 0.00 in0.0 mm 0.11 in2.8 mm
01:54 AM 52.7°F11.5°C 51.8°F11.0°C 97% 2.0 mph N3.2 kmh N 4.0 mph6.4 kmh 30.17 in1021.7 mb 0.00 in0.0 mm 0.00 in0.0 mm 0.11 in2.8 mm
01:59 AM 52.5°F11.4°C 51.4°F10.8°C 96% 1.5 mph NNE2.4 kmh NNE 4.0 mph6.4 kmh 30.18 in1022.0 mb 0.00 in0.0 mm 0.00 in0.0 mm 0.11 in2.8 mm
02:04 AM 52.4°F11.3°C 51.5°F10.8°C 97% 1.3 mph NE2.1 kmh NE 4.0 mph6.4 kmh 30.18 in1022.0 mb 0.00 in0.0 mm 0.00 in0.0 mm 0.11 in2.8 mm
02:09 AM 52.2°F11.2°C 51.3°F10.7°C 97% 1.7 mph NE2.7 kmh NE 4.0 mph6.4 kmh 30.17 in1021.7 mb 0.00 in0.0 mm 0.00 in0.0 mm 0.11 in2.8 mm
02:14 AM 52.1°F11.2°C 51.2°F10.7°C 97% 1.8 mph NE2.9 kmh NE 4.0 mph6.4 kmh 30.18 in1022.0 mb 0.00 in0.0 mm 0.00 in0.0 mm 0.11 in2.8 mm
02:19 AM 52.1°F11.2°C 51.3°F10.7°C 97% 1.0 mph N1.6 kmh N 4.0 mph6.4 kmh 30.18 in1022.0 mb 0.00 in0.0 mm 0.00 in0.0 mm 0.11 in2.8 mm
02:24 AM 52.0°F11.1°C 51.2°F10.7°C 97% 1.0 mph N1.6 kmh N 4.0 mph6.4 kmh 30.18 in1022.0 mb 0.00 in0.0 mm 0.00 in0.0 mm 0.11 in2.8 mm
02:29 AM 52.0°F11.1°C 51.2°F10.7°C 97% Calm Calm 4.0 mph6.4 kmh 30.17 in1021.7 mb 0.00 in0.0 mm 0.00 in0.0 mm 0.11 in2.8 mm
02:34 AM 52.0°F11.1°C 50.9°F10.5°C 96% Calm Calm 6.0 mph9.7 kmh 30.18 in1022.0 mb 0.00 in0.0 mm 0.00 in0.0 mm 0.11 in2.8 mm
02:39 AM 52.0°F11.1°C 50.9°F10.5°C 96% 1.0 mph NNE1.6 kmh NNE 6.0 mph9.7 kmh 30.18 in1022.0 mb 0.00 in0.0 mm 0.00 in0.0 mm 0.11 in2.8 mm
02:44 AM 52.0°F11.1°C 50.9°F10.5°C 96% 1.0 mph NE1.6 kmh NE 6.0 mph9.7 kmh 30.18 in1022.0 mb 0.00 in0.0 mm 0.00 in0.0 mm 0.11 in2.8 mm
02:49 AM 52.0°F11.1°C 50.9°F10.5°C 96% 1.0 mph NE1.6 kmh NE 6.0 mph9.7 kmh 30.18 in1022.0 mb 0.00 in0.0 mm 0.00 in0.0 mm 0.11 in2.8 mm
02:54 AM 52.0°F11.1°C 50.9°F10.5°C 96% 1.0 mph NNE1.6 kmh NNE 1.0 mph1.6 kmh 30.18 in1022.0 mb 0.00 in0.0 mm 0.00 in0.0 mm 0.11 in2.8 mm
02:59 AM 52.0°F11.1°C 50.9°F10.5°C 96% 1.0 mph N1.6 kmh N 1.0 mph1.6 kmh 30.17 in1021.7 mb 0.00 in0.0 mm 0.00 in0.0 mm 0.11 in2.8 mm
03:04 AM 51.9°F11.1°C 50.8°F10.4°C 96% 1.5 mph N2.4 kmh N 4.0 mph6.4 kmh 30.18 in1022.0 mb 0.00 in0.0 mm 0.00 in0.0 mm 0.11 in2.8 mm
03:09 AM 51.9°F11.1°C 51.0°F10.6°C 97% 1.4 mph NNE2.3 kmh NNE 4.0 mph6.4 kmh 30.18 in1022.0 mb 0.00 in0.0 mm 0.00 in0.0 mm 0.11 in2.8 mm
03:13 AM 51.9°F11.1°C 51.0°F10.6°C 97% 1.0 mph NE1.6 kmh NE 4.0 mph6.4 kmh 30.18 in1022.0 mb 0.00 in0.0 mm 0.00 in0.0 mm 0.11 in2.8 mm
03:18 AM 51.9°F11.1°C 51.0°F10.6°C 97% 1.0 mph NE1.6 kmh NE 4.0 mph6.4 kmh 30.18 in1022.0 mb 0.00 in0.0 mm 0.00 in0.0 mm 0.11 in2.8 mm
03:23 AM 51.9°F11.1°C 50.8°F10.4°C 96% 1.0 mph NNE1.6 kmh NNE 2.0 mph3.2 kmh 30.18 in1022.0 mb 0.00 in0.0 mm 0.00 in0.0 mm 0.11 in2.8 mm
03:28 AM 51.9°F11.1°C 51.0°F10.6°C 97% 1.0 mph NE1.6 kmh NE 2.0 mph3.2 kmh 30.18 in1022.0 mb 0.00 in0.0 mm 0.00 in0.0 mm 0.11 in2.8 mm
03:33 AM 51.8°F11.0°C 50.7°F10.4°C 96% 1.0 mph NNW1.6 kmh NNW 2.0 mph3.2 kmh 30.18 in1022.0 mb 0.00 in0.0 mm 0.00 in0.0 mm 0.11 in2.8 mm
03:38 AM 51.8°F11.0°C 50.7°F10.4°C 96% 1.0 mph NNE1.6 kmh NNE 2.0 mph3.2 kmh 30.18 in1022.0 mb 0.00 in0.0 mm 0.00 in0.0 mm 0.11 in2.8 mm
03:43 AM 51.8°F11.0°C 50.9°F10.5°C 97% Calm Calm 2.0 mph3.2 kmh 30.19 in1022.4 mb 0.00 in0.0 mm 0.00 in0.0 mm 0.11 in2.8 mm
03:48 AM 51.8°F11.0°C 50.7°F10.4°C 96% 1.2 mph NE1.9 kmh NE 2.0 mph3.2 kmh 30.19 in1022.4 mb 0.00 in0.0 mm 0.00 in0.0 mm 0.11 in2.8 mm
03:53 AM 51.8°F11.0°C 50.9°F10.5°C 97% 1.5 mph NE2.4 kmh NE 2.0 mph3.2 kmh 30.18 in1022.0 mb 0.00 in0.0 mm 0.00 in0.0 mm 0.11 in2.8 mm
03:58 AM 51.8°F11.0°C 50.9°F10.5°C 97% 1.0 mph NE1.6 kmh NE 3.0 mph4.8 kmh 30.19 in1022.4 mb 0.00 in0.0 mm 0.00 in0.0 mm 0.11 in2.8 mm
04:03 AM 51.8°F11.0°C 51.0°F10.6°C 97% 1.0 mph NE1.6 kmh NE 3.0 mph4.8 kmh 30.19 in1022.4 mb 0.00 in0.0 mm 0.00 in0.0 mm 0.11 in2.8 mm
04:08 AM 51.7°F10.9°C 50.8°F10.4°C 97% 1.4 mph NE2.3 kmh NE 4.0 mph6.4 kmh 30.19 in1022.4 mb 0.00 in0.0 mm 0.00 in0.0 mm 0.11 in2.8 mm
04:13 AM 51.8°F11.0°C 50.9°F10.5°C 97% 3.1 mph NE5.0 kmh NE 5.0 mph8.0 kmh 30.18 in1022.0 mb 0.00 in0.0 mm 0.00 in0.0 mm 0.11 in2.8 mm
04:18 AM 51.7°F10.9°C 50.8°F10.4°C 97% 2.3 mph NE3.7 kmh NE 6.0 mph9.7 kmh 30.19 in1022.4 mb 0.00 in0.0 mm 0.00 in0.0 mm 0.11 in2.8 mm
04:23 AM 51.7°F10.9°C 50.9°F10.5°C 97% 1.2 mph NE1.9 kmh NE 6.0 mph9.7 kmh 30.19 in1022.4 mb 0.00 in0.0 mm 0.00 in0.0 mm 0.11 in2.8 mm
04:28 AM 51.7°F10.9°C 50.9°F10.5°C 97% 1.2 mph NE1.9 kmh NE 6.0 mph9.7 kmh 30.18 in1022.0 mb 0.00 in0.0 mm 0.00 in0.0 mm 0.11 in2.8 mm
04:33 AM 51.7°F10.9°C 50.8°F10.4°C 97% 2.7 mph NE4.3 kmh NE 6.0 mph9.7 kmh 30.18 in1022.0 mb 0.00 in0.0 mm 0.00 in0.0 mm 0.11 in2.8 mm
04:38 AM 51.7°F10.9°C 50.8°F10.4°C 97% 1.0 mph NE1.6 kmh NE 4.0 mph6.4 kmh 30.18 in1022.0 mb 0.00 in0.0 mm 0.00 in0.0 mm 0.11 in2.8 mm
04:43 AM 51.7°F10.9°C 50.8°F10.4°C 97% 1.3 mph NE2.1 kmh NE 4.0 mph6.4 kmh 30.17 in1021.7 mb 0.00 in0.0 mm 0.00 in0.0 mm 0.11 in2.8 mm
04:48 AM 51.6°F10.9°C 50.8°F10.4°C 97% 1.0 mph NE1.6 kmh NE 4.0 mph6.4 kmh 30.17 in1021.7 mb 0.00 in0.0 mm 0.00 in0.0 mm 0.11 in2.8 mm
04:53 AM 51.6°F10.9°C 50.7°F10.4°C 97% 3.9 mph ENE6.3 kmh ENE 7.0 mph11.3 kmh 30.17 in1021.7 mb 0.00 in0.0 mm 0.00 in0.0 mm 0.11 in2.8 mm
04:58 AM 51.6°F10.9°C 50.7°F10.4°C 97% 2.1 mph NE3.4 kmh NE 7.0 mph11.3 kmh 30.17 in1021.7 mb 0.00 in0.0 mm 0.00 in0.0 mm 0.11 in2.8 mm
05:03 AM 51.6°F10.9°C 50.7°F10.4°C 97% 1.6 mph NE2.6 kmh NE 7.0 mph11.3 kmh 30.17 in1021.7 mb 0.00 in0.0 mm 0.00 in0.0 mm 0.11 in2.8 mm
05:08 AM 51.6°F10.9°C 50.7°F10.4°C 97% 2.1 mph NE3.4 kmh NE 7.0 mph11.3 kmh 30.17 in1021.7 mb 0.01 in0.3 mm 0.12 in3.0 mm 0.01 in0.3 mm
05:13 AM 51.5°F10.8°C 50.6°F10.3°C 97% Calm Calm 5.0 mph8.0 kmh 30.17 in1021.7 mb 0.01 in0.3 mm 0.00 in0.0 mm 0.01 in0.3 mm
05:18 AM 51.5°F10.8°C 50.4°F10.2°C 96% 1.4 mph NE2.3 kmh NE 4.0 mph6.4 kmh 30.16 in1021.3 mb 0.01 in0.3 mm 0.00 in0.0 mm 0.01 in0.3 mm
05:23 AM 51.4°F10.8°C 50.3°F10.2°C 96% 1.6 mph ENE2.6 kmh ENE 4.0 mph6.4 kmh 30.16 in1021.3 mb 0.01 in0.3 mm 0.00 in0.0 mm 0.01 in0.3 mm
05:28 AM 51.4°F10.8°C 50.3°F10.2°C 96% 1.2 mph ENE1.9 kmh ENE 4.0 mph6.4 kmh 30.16 in1021.3 mb 0.01 in0.3 mm 0.00 in0.0 mm 0.01 in0.3 mm
05:33 AM 51.4°F10.8°C 50.3°F10.2°C 96% Calm Calm 4.0 mph6.4 kmh 30.16 in1021.3 mb 0.02 in0.5 mm 0.12 in3.0 mm 0.02 in0.5 mm
05:38 AM 51.4°F10.8°C 50.3°F10.2°C 96% 1.0 mph ENE1.6 kmh ENE 4.0 mph6.4 kmh 30.16 in1021.3 mb 0.02 in0.5 mm 0.00 in0.0 mm 0.02 in0.5 mm
05:43 AM 51.4°F10.8°C 50.3°F10.2°C 96% 1.0 mph NE1.6 kmh NE 4.0 mph6.4 kmh 30.16 in1021.3 mb 0.02 in0.5 mm 0.00 in0.0 mm 0.02 in0.5 mm
05:48 AM 51.4°F10.8°C 50.3°F10.2°C 96% Calm Calm 3.0 mph4.8 kmh 30.17 in1021.7 mb 0.02 in0.5 mm 0.00 in0.0 mm 0.02 in0.5 mm
05:53 AM 51.5°F10.8°C 50.6°F10.3°C 97% 1.0 mph E1.6 kmh E 3.0 mph4.8 kmh 30.16 in1021.3 mb 0.02 in0.5 mm 0.00 in0.0 mm 0.02 in0.5 mm
05:58 AM 51.4°F10.8°C 50.3°F10.2°C 96% Calm Calm 3.0 mph4.8 kmh 30.15 in1021.0 mb 0.02 in0.5 mm 0.00 in0.0 mm 0.03 in0.8 mm
06:03 AM 51.4°F10.8°C 50.6°F10.3°C 97% 1.2 mph E1.9 kmh E 3.0 mph4.8 kmh 30.16 in1021.3 mb 0.04 in1.0 mm 0.02 in0.5 mm 0.04 in1.0 mm
06:08 AM 51.4°F10.8°C 50.6°F10.3°C 97% 1.0 mph E1.6 kmh E 2.0 mph3.2 kmh 30.15 in1021.0 mb 0.05 in1.3 mm 0.12 in3.0 mm 0.06 in1.5 mm
06:13 AM 51.3°F10.7°C 50.4°F10.2°C 97% 1.3 mph E2.1 kmh E 2.0 mph3.2 kmh 30.15 in1021.0 mb 0.06 in1.5 mm 0.12 in3.0 mm 0.07 in1.8 mm
06:18 AM 51.3°F10.7°C 50.5°F10.3°C 97% 1.0 mph E1.6 kmh E 2.0 mph3.2 kmh 30.15 in1021.0 mb 0.06 in1.5 mm 0.00 in0.0 mm 0.07 in1.8 mm
06:23 AM 51.3°F10.7°C 50.5°F10.3°C 97% Calm Calm 2.0 mph3.2 kmh 30.15 in1021.0 mb 0.06 in1.5 mm 0.00 in0.0 mm 0.07 in1.8 mm
06:28 AM 51.4°F10.8°C 50.5°F10.3°C 97% 1.0 mph ENE1.6 kmh ENE 2.0 mph3.2 kmh 30.15 in1021.0 mb 0.07 in1.8 mm 0.12 in3.0 mm 0.08 in2.0 mm
06:33 AM 51.3°F10.7°C 50.4°F10.2°C 97% 1.3 mph E2.1 kmh E 2.0 mph3.2 kmh 30.15 in1021.0 mb 0.07 in1.8 mm 0.00 in0.0 mm 0.09 in2.3 mm
06:38 AM 51.4°F10.8°C 50.6°F10.3°C 97% Calm Calm 2.0 mph3.2 kmh 30.15 in1021.0 mb 0.08 in2.0 mm 0.12 in3.0 mm 0.10 in2.5 mm
06:43 AM 51.4°F10.8°C 50.6°F10.3°C 97% 1.0 mph E1.6 kmh E 2.0 mph3.2 kmh 30.15 in1021.0 mb 0.08 in2.0 mm 0.00 in0.0 mm 0.10 in2.5 mm
06:48 AM 51.4°F10.8°C 50.6°F10.3°C 97% 1.0 mph ENE1.6 kmh ENE 2.0 mph3.2 kmh 30.15 in1021.0 mb 0.08 in2.0 mm 0.00 in0.0 mm 0.10 in2.5 mm
06:54 AM 51.3°F10.7°C 50.4°F10.2°C 97% 1.0 mph E1.6 kmh E 2.0 mph3.2 kmh 30.15 in1021.0 mb 0.08 in2.0 mm 0.00 in0.0 mm 0.10 in2.5 mm
06:58 AM 51.3°F10.7°C 50.4°F10.2°C 97% 1.4 mph E2.3 kmh E 3.0 mph4.8 kmh 30.15 in1021.0 mb 0.07 in1.8 mm 0.00 in0.0 mm 0.10 in2.5 mm
07:03 AM 51.2°F10.7°C 50.4°F10.2°C 97% 1.4 mph E2.3 kmh E 4.0 mph6.4 kmh 30.16 in1021.3 mb 0.06 in1.5 mm 0.00 in0.0 mm 0.10 in2.5 mm
07:09 AM 51.2°F10.7°C 50.3°F10.2°C 97% 1.0 mph E1.6 kmh E 5.0 mph8.0 kmh 30.16 in1021.3 mb 0.04 in1.0 mm 0.00 in0.0 mm 0.10 in2.5 mm
07:14 AM 51.2°F10.7°C 50.4°F10.2°C 97% 1.6 mph E2.6 kmh E 5.0 mph8.0 kmh 30.15 in1021.0 mb 0.03 in0.8 mm 0.00 in0.0 mm 0.10 in2.5 mm
07:19 AM 51.2°F10.7°C 50.4°F10.2°C 97% 1.4 mph E2.3 kmh E 5.0 mph8.0 kmh 30.16 in1021.3 mb 0.03 in0.8 mm 0.00 in0.0 mm 0.10 in2.5 mm
07:24 AM 51.2°F10.7°C 50.4°F10.2°C 97% 2.2 mph NE3.5 kmh NE 4.0 mph6.4 kmh 30.16 in1021.3 mb 0.05 in1.3 mm 0.24 in6.1 mm 0.12 in3.0 mm
07:29 AM 51.2°F10.7°C 50.4°F10.2°C 97% 1.0 mph N1.6 kmh N 4.0 mph6.4 kmh 30.17 in1021.7 mb 0.04 in1.0 mm 0.00 in0.0 mm 0.12 in3.0 mm
07:34 AM 51.2°F10.7°C 50.3°F10.2°C 97% 1.0 mph NE1.6 kmh NE 4.0 mph6.4 kmh 30.17 in1021.7 mb 0.03 in0.8 mm 0.00 in0.0 mm 0.12 in3.0 mm
07:39 AM 51.2°F10.7°C 50.3°F10.2°C 97% 1.2 mph NE1.9 kmh NE 4.0 mph6.4 kmh 30.18 in1022.0 mb 0.02 in0.5 mm 0.00 in0.0 mm 0.12 in3.0 mm
07:44 AM 51.3°F10.7°C 50.5°F10.3°C 97% 1.0 mph NE1.6 kmh NE 3.0 mph4.8 kmh 30.18 in1022.0 mb 0.03 in0.8 mm 0.12 in3.0 mm 0.13 in3.3 mm
07:49 AM 51.3°F10.7°C 50.4°F10.2°C 97% Calm Calm 3.0 mph4.8 kmh 30.18 in1022.0 mb 0.03 in0.8 mm 0.00 in0.0 mm 0.13 in3.3 mm
07:54 AM 51.2°F10.7°C 50.3°F10.2°C 97% 1.8 mph SSE2.9 kmh SSE 3.0 mph4.8 kmh 30.17 in1021.7 mb 0.04 in1.0 mm 0.12 in3.0 mm 0.14 in3.6 mm
07:59 AM 51.2°F10.7°C 50.3°F10.2°C 97% 4.2 mph SE6.8 kmh SE 10.0 mph16.1 kmh 30.15 in1021.0 mb 0.04 in1.0 mm 0.00 in0.0 mm 0.14 in3.6 mm
08:04 AM 51.2°F10.7°C 50.3°F10.2°C 97% 3.0 mph SE4.8 kmh SE 10.0 mph16.1 kmh 30.16 in1021.3 mb 0.04 in1.0 mm 0.00 in0.0 mm 0.14 in3.6 mm
08:09 AM 51.2°F10.7°C 50.3°F10.2°C 97% Calm Calm 10.0 mph16.1 kmh 30.17 in1021.7 mb 0.04 in1.0 mm 0.00 in0.0 mm 0.14 in3.6 mm
08:14 AM 51.2°F10.7°C 50.4°F10.2°C 97% 2.2 mph SE3.5 kmh SE 10.0 mph16.1 kmh 30.17 in1021.7 mb 0.04 in1.0 mm 0.00 in0.0 mm 0.14 in3.6 mm
08:19 AM 51.3°F10.7°C 50.5°F10.3°C 97% 1.6 mph SE2.6 kmh SE 7.0 mph11.3 kmh 30.17 in1021.7 mb 0.03 in0.8 mm 0.00 in0.0 mm 0.14 in3.6 mm
08:24 AM 51.3°F10.7°C 50.5°F10.3°C 97% 1.3 mph SE2.1 kmh SE 4.0 mph6.4 kmh 30.17 in1021.7 mb 0.02 in0.5 mm 0.00 in0.0 mm 0.14 in3.6 mm
08:29 AM 51.3°F10.7°C 50.4°F10.2°C 97% 1.0 mph E1.6 kmh E 4.0 mph6.4 kmh 30.18 in1022.0 mb 0.02 in0.5 mm 0.00 in0.0 mm 0.14 in3.6 mm
08:34 AM 51.4°F10.8°C 50.5°F10.3°C 97% 2.9 mph ESE4.7 kmh ESE 7.0 mph11.3 kmh 30.17 in1021.7 mb 0.02 in0.5 mm 0.00 in0.0 mm 0.14 in3.6 mm
08:39 AM 51.4°F10.8°C 50.3°F10.2°C 96% 1.5 mph ESE2.4 kmh ESE 8.0 mph12.9 kmh 30.17 in1021.7 mb 0.02 in0.5 mm 0.00 in0.0 mm 0.14 in3.6 mm
08:44 AM 51.4°F10.8°C 50.3°F10.2°C 96% 1.7 mph ESE2.7 kmh ESE 8.0 mph12.9 kmh 30.17 in1021.7 mb 0.01 in0.3 mm 0.00 in0.0 mm 0.14 in3.6 mm
08:49 AM 51.5°F10.8°C 50.4°F10.2°C 96% 1.1 mph SE1.8 kmh SE 8.0 mph12.9 kmh 30.17 in1021.7 mb 0.01 in0.3 mm 0.00 in0.0 mm 0.14 in3.6 mm
08:54 AM 51.5°F10.8°C 50.4°F10.2°C 96% 2.3 mph E3.7 kmh E 6.0 mph9.7 kmh 30.17 in1021.7 mb 0.00 in0.0 mm 0.00 in0.0 mm 0.14 in3.6 mm
08:59 AM 51.5°F10.8°C 50.4°F10.2°C 96% 1.9 mph E3.1 kmh E 6.0 mph9.7 kmh 30.18 in1022.0 mb 0.00 in0.0 mm 0.00 in0.0 mm 0.14 in3.6 mm
09:04 AM 51.5°F10.8°C 50.4°F10.2°C 96% 2.0 mph E3.2 kmh E 6.0 mph9.7 kmh 30.18 in1022.0 mb 0.00 in0.0 mm 0.00 in0.0 mm 0.14 in3.6 mm
09:09 AM 51.5°F10.8°C 50.4°F10.2°C 96% 1.6 mph E2.6 kmh E 6.0 mph9.7 kmh 30.18 in1022.0 mb 0.00 in0.0 mm 0.00 in0.0 mm 0.14 in3.6 mm
09:13 AM 51.5°F10.8°C 50.6°F10.3°C 97% 1.0 mph ENE1.6 kmh ENE 5.0 mph8.0 kmh 30.18 in1022.0 mb 0.01 in0.3 mm 0.15 in3.8 mm 0.15 in3.8 mm
09:18 AM 51.5°F10.8°C 50.6°F10.3°C 97% 1.0 mph E1.6 kmh E 5.0 mph8.0 kmh 30.18 in1022.0 mb 0.01 in0.3 mm 0.00 in0.0 mm 0.15 in3.8 mm
09:23 AM 51.5°F10.8°C 50.6°F10.3°C 97% 1.1 mph E1.8 kmh E 3.0 mph4.8 kmh 30.18 in1022.0 mb 0.02 in0.5 mm 0.12 in3.0 mm 0.16 in4.1 mm
09:28 AM 51.5°F10.8°C 50.6°F10.3°C 97% 1.0 mph ENE1.6 kmh ENE 2.0 mph3.2 kmh 30.18 in1022.0 mb 0.02 in0.5 mm 0.00 in0.0 mm 0.16 in4.1 mm
09:33 AM 51.5°F10.8°C 50.6°F10.3°C 97% 1.0 mph E1.6 kmh E 2.0 mph3.2 kmh 30.19 in1022.4 mb 0.03 in0.8 mm 0.12 in3.0 mm 0.17 in4.3 mm
09:38 AM 51.5°F10.8°C 50.7°F10.4°C 97% 1.0 mph E1.6 kmh E 2.0 mph3.2 kmh 30.19 in1022.4 mb 0.03 in0.8 mm 0.00 in0.0 mm 0.17 in4.3 mm
09:43 AM 51.5°F10.8°C 50.6°F10.3°C 97% 1.0 mph ENE1.6 kmh ENE 2.0 mph3.2 kmh 30.19 in1022.4 mb 0.03 in0.8 mm 0.00 in0.0 mm 0.17 in4.3 mm
09:48 AM 51.5°F10.8°C 50.6°F10.3°C 97% 1.0 mph ENE1.6 kmh ENE 2.0 mph3.2 kmh 30.19 in1022.4 mb 0.03 in0.8 mm 0.00 in0.0 mm 0.17 in4.3 mm
09:53 AM 51.6°F10.9°C 50.7°F10.4°C 97% 1.0 mph ENE1.6 kmh ENE 2.0 mph3.2 kmh 30.19 in1022.4 mb 0.03 in0.8 mm 0.00 in0.0 mm 0.17 in4.3 mm
09:58 AM 51.7°F10.9°C 51.2°F10.7°C 98% 1.2 mph ENE1.9 kmh ENE 2.0 mph3.2 kmh 30.19 in1022.4 mb 0.03 in0.8 mm 0.00 in0.0 mm 0.17 in4.3 mm
10:03 AM 51.7°F10.9°C 51.2°F10.7°C 98% 1.0 mph NE1.6 kmh NE 2.0 mph3.2 kmh 30.19 in1022.4 mb 0.03 in0.8 mm 0.00 in0.0 mm 0.17 in4.3 mm
10:08 AM 51.8°F11.0°C 51.2°F10.7°C 98% 1.0 mph E1.6 kmh E 2.0 mph3.2 kmh 30.19 in1022.4 mb 0.03 in0.8 mm 0.00 in0.0 mm 0.17 in4.3 mm
10:13 AM 51.8°F11.0°C 51.2°F10.7°C 98% 1.0 mph E1.6 kmh E 2.0 mph3.2 kmh 30.20 in1022.7 mb 0.02 in0.5 mm 0.00 in0.0 mm 0.17 in4.3 mm
10:18 AM 51.8°F11.0°C 51.2°F10.7°C 98% 1.0 mph E1.6 kmh E 1.0 mph1.6 kmh 30.20 in1022.7 mb 0.04 in1.0 mm 0.24 in6.1 mm 0.19 in4.8 mm
10:23 AM 51.8°F11.0°C 51.2°F10.7°C 98% 1.2 mph E1.9 kmh E 2.0 mph3.2 kmh 30.20 in1022.7 mb 0.03 in0.8 mm 0.00 in0.0 mm 0.19 in4.8 mm
10:28 AM 51.9°F11.1°C 51.3°F10.7°C 98% 1.7 mph NE2.7 kmh NE 3.0 mph4.8 kmh 30.20 in1022.7 mb 0.03 in0.8 mm 0.00 in0.0 mm 0.19 in4.8 mm
10:33 AM 52.0°F11.1°C 51.4°F10.8°C 98% 1.0 mph E1.6 kmh E 3.0 mph4.8 kmh 30.20 in1022.7 mb 0.02 in0.5 mm 0.00 in0.0 mm 0.19 in4.8 mm
10:38 AM 52.1°F11.2°C 51.5°F10.8°C 98% 1.0 mph E1.6 kmh E 3.0 mph4.8 kmh 30.20 in1022.7 mb 0.02 in0.5 mm 0.00 in0.0 mm 0.19 in4.8 mm
10:43 AM 52.2°F11.2°C 51.6°F10.9°C 98% 1.0 mph E1.6 kmh E 3.0 mph4.8 kmh 30.21 in1023.0 mb 0.02 in0.5 mm 0.00 in0.0 mm 0.19 in4.8 mm
10:48 AM 52.3°F11.3°C 51.7°F10.9°C 98% 1.0 mph E1.6 kmh E 3.0 mph4.8 kmh 30.21 in1023.0 mb 0.02 in0.5 mm 0.00 in0.0 mm 0.19 in4.8 mm
10:53 AM 52.4°F11.3°C 51.8°F11.0°C 98% Calm Calm 3.0 mph4.8 kmh 30.21 in1023.0 mb 0.02 in0.5 mm 0.00 in0.0 mm 0.19 in4.8 mm
10:58 AM 52.4°F11.3°C 51.8°F11.0°C 98% 1.0 mph E1.6 kmh E 1.0 mph1.6 kmh 30.21 in1023.0 mb 0.02 in0.5 mm 0.00 in0.0 mm 0.19 in4.8 mm
11:03 AM 52.5°F11.4°C 51.9°F11.1°C 98% 2.0 mph NE3.2 kmh NE 3.0 mph4.8 kmh 30.22 in1023.4 mb 0.02 in0.5 mm 0.00 in0.0 mm 0.19 in4.8 mm
11:08 AM 52.5°F11.4°C 51.9°F11.1°C 98% Calm Calm 4.0 mph6.4 kmh 30.22 in1023.4 mb 0.04 in1.0 mm 0.24 in6.1 mm 0.21 in5.3 mm
11:13 AM 52.5°F11.4°C 51.9°F11.1°C 98% Calm Calm 4.0 mph6.4 kmh 30.21 in1023.0 mb 0.04 in1.0 mm 0.00 in0.0 mm 0.21 in5.3 mm
11:18 AM 52.6°F11.4°C 52.0°F11.1°C 98% 1.5 mph NE2.4 kmh NE 4.0 mph6.4 kmh 30.21 in1023.0 mb 0.02 in0.5 mm 0.00 in0.0 mm 0.21 in5.3 mm
11:23 AM 52.6°F11.4°C 52.0°F11.1°C 98% 1.0 mph NE1.6 kmh NE 3.0 mph4.8 kmh 30.21 in1023.0 mb 0.02 in0.5 mm 0.00 in0.0 mm 0.21 in5.3 mm
11:28 AM 52.6°F11.4°C 52.1°F11.2°C 98% 1.1 mph ENE1.8 kmh ENE 3.0 mph4.8 kmh 30.21 in1023.0 mb 0.02 in0.5 mm 0.00 in0.0 mm 0.21 in5.3 mm
11:33 AM 52.6°F11.4°C 52.1°F11.2°C 98% Calm Calm 4.0 mph6.4 kmh 30.21 in1023.0 mb 0.02 in0.5 mm 0.00 in0.0 mm 0.21 in5.3 mm
11:38 AM 52.6°F11.4°C 52.1°F11.2°C 98% 1.0 mph E1.6 kmh E 4.0 mph6.4 kmh 30.21 in1023.0 mb 0.02 in0.5 mm 0.00 in0.0 mm 0.21 in5.3 mm
11:43 AM 52.6°F11.4°C 52.1°F11.2°C 98% Calm Calm 4.0 mph6.4 kmh 30.21 in1023.0 mb 0.02 in0.5 mm 0.00 in0.0 mm 0.21 in5.3 mm
11:48 AM 52.7°F11.5°C 52.2°F11.2°C 98% Calm Calm 4.0 mph6.4 kmh 30.20 in1022.7 mb 0.02 in0.5 mm 0.00 in0.0 mm 0.21 in5.3 mm
11:53 AM 52.6°F11.4°C 52.1°F11.2°C 98% 1.0 mph E1.6 kmh E 2.0 mph3.2 kmh 30.20 in1022.7 mb 0.02 in0.5 mm 0.00 in0.0 mm 0.21 in5.3 mm
11:58 AM 52.8°F11.6°C 52.2°F11.2°C 98% 1.0 mph E1.6 kmh E 2.0 mph3.2 kmh 30.20 in1022.7 mb 0.02 in0.5 mm 0.00 in0.0 mm 0.21 in5.3 mm
12:03 PM 52.8°F11.6°C 52.2°F11.2°C 98% Calm Calm 2.0 mph3.2 kmh 30.19 in1022.4 mb 0.02 in0.5 mm 0.00 in0.0 mm 0.21 in5.3 mm
12:08 PM 52.8°F11.6°C 52.2°F11.2°C 98% 1.5 mph NE2.4 kmh NE 3.0 mph4.8 kmh 30.20 in1022.7 mb 0.00 in0.0 mm 0.00 in0.0 mm 0.21 in5.3 mm
12:13 PM 53.0°F11.7°C 52.4°F11.3°C 98% Calm Calm 3.0 mph4.8 kmh 30.20 in1022.7 mb 0.00 in0.0 mm 0.00 in0.0 mm 0.21 in5.3 mm
12:18 PM 53.1°F11.7°C 52.5°F11.4°C 98% 1.0 mph NNE1.6 kmh NNE 3.0 mph4.8 kmh 30.20 in1022.7 mb 0.00 in0.0 mm 0.00 in0.0 mm 0.21 in5.3 mm
12:23 PM 53.2°F11.8°C 52.6°F11.4°C 98% 1.0 mph NE1.6 kmh NE 3.0 mph4.8 kmh 30.19 in1022.4 mb 0.00 in0.0 mm 0.00 in0.0 mm 0.21 in5.3 mm
12:28 PM 53.2°F11.8°C 52.6°F11.4°C 98% Calm Calm 2.0 mph3.2 kmh 30.19 in1022.4 mb 0.00 in0.0 mm 0.00 in0.0 mm 0.21 in5.3 mm
12:33 PM 53.1°F11.7°C 52.5°F11.4°C 98% Calm Calm 2.0 mph3.2 kmh 30.19 in1022.4 mb 0.00 in0.0 mm 0.00 in0.0 mm 0.21 in5.3 mm
12:38 PM 53.1°F11.7°C 52.5°F11.4°C 98% 1.0 mph E1.6 kmh E 1.0 mph1.6 kmh 30.19 in1022.4 mb 0.00 in0.0 mm 0.00 in0.0 mm 0.21 in5.3 mm
12:43 PM 53.2°F11.8°C 52.6°F11.4°C 98% 1.0 mph ENE1.6 kmh ENE 1.0 mph1.6 kmh 30.18 in1022.0 mb 0.00 in0.0 mm 0.00 in0.0 mm 0.21 in5.3 mm
12:48 PM 53.2°F11.8°C 52.6°F11.4°C 98% 1.0 mph E1.6 kmh E 1.0 mph1.6 kmh 30.18 in1022.0 mb 0.00 in0.0 mm 0.00 in0.0 mm 0.21 in5.3 mm
12:53 PM 53.4°F11.9°C 52.8°F11.6°C 98% 1.0 mph ENE1.6 kmh ENE 1.0 mph1.6 kmh 30.18 in1022.0 mb 0.00 in0.0 mm 0.00 in0.0 mm 0.21 in5.3 mm
12:58 PM 53.5°F11.9°C 52.9°F11.6°C 98% Calm Calm 1.0 mph1.6 kmh 30.17 in1021.7 mb 0.00 in0.0 mm 0.00 in0.0 mm 0.21 in5.3 mm
01:03 PM 53.4°F11.9°C 52.8°F11.6°C 98% 1.6 mph E2.6 kmh E 3.0 mph4.8 kmh 30.17 in1021.7 mb 0.00 in0.0 mm 0.00 in0.0 mm 0.21 in5.3 mm
01:08 PM 53.5°F11.9°C 52.9°F11.6°C 98% Calm Calm 3.0 mph4.8 kmh 30.17 in1021.7 mb 0.00 in0.0 mm 0.00 in0.0 mm 0.21 in5.3 mm
01:13 PM 53.6°F12.0°C 53.0°F11.7°C 98% Calm Calm 3.0 mph4.8 kmh 30.16 in1021.3 mb 0.00 in0.0 mm 0.00 in0.0 mm 0.21 in5.3 mm
01:18 PM 53.7°F12.1°C 53.1°F11.7°C 98% Calm Calm 3.0 mph4.8 kmh 30.15 in1021.0 mb 0.00 in0.0 mm 0.00 in0.0 mm 0.21 in5.3 mm
01:23 PM 53.7°F12.1°C 53.1°F11.7°C 98% 1.0 mph ENE1.6 kmh ENE 1.0 mph1.6 kmh 30.16 in1021.3 mb 0.00 in0.0 mm 0.00 in0.0 mm 0.21 in5.3 mm
01:28 PM 53.9°F12.2°C 53.3°F11.8°C 98% Calm Calm 1.0 mph1.6 kmh 30.15 in1021.0 mb 0.00 in0.0 mm 0.00 in0.0 mm 0.21 in5.3 mm
01:33 PM 53.8°F12.1°C 53.2°F11.8°C 98% 1.2 mph ENE1.9 kmh ENE 3.0 mph4.8 kmh 30.15 in1021.0 mb 0.00 in0.0 mm 0.00 in0.0 mm 0.21 in5.3 mm
01:38 PM 53.9°F12.2°C 53.3°F11.8°C 98% 1.0 mph ENE1.6 kmh ENE 3.0 mph4.8 kmh 30.15 in1021.0 mb 0.00 in0.0 mm 0.00 in0.0 mm 0.21 in5.3 mm
01:43 PM 54.0°F12.2°C 53.4°F11.9°C 98% Calm Calm 3.0 mph4.8 kmh 30.15 in1021.0 mb 0.00 in0.0 mm 0.00 in0.0 mm 0.21 in5.3 mm
01:48 PM 54.0°F12.2°C 53.4°F11.9°C 98% 1.0 mph NE1.6 kmh NE 3.0 mph4.8 kmh 30.15 in1021.0 mb 0.00 in0.0 mm 0.00 in0.0 mm 0.21 in5.3 mm
01:53 PM 54.1°F12.3°C 53.5°F11.9°C 98% 1.6 mph NE2.6 kmh NE 2.0 mph3.2 kmh 30.15 in1021.0 mb 0.00 in0.0 mm 0.00 in0.0 mm 0.21 in5.3 mm
01:58 PM 54.0°F12.2°C 53.4°F11.9°C 98% 1.7 mph NE2.7 kmh NE 3.0 mph4.8 kmh 30.15 in1021.0 mb 0.00 in0.0 mm 0.00 in0.0 mm 0.21 in5.3 mm
02:03 PM 54.0°F12.2°C 53.4°F11.9°C 98% 1.7 mph NE2.7 kmh NE 3.0 mph4.8 kmh 30.15 in1021.0 mb 0.00 in0.0 mm 0.00 in0.0 mm 0.21 in5.3 mm
02:08 PM 54.0°F12.2°C 53.4°F11.9°C 98% 1.0 mph NE1.6 kmh NE 3.0 mph4.8 kmh 30.14 in1020.7 mb 0.00 in0.0 mm 0.00 in0.0 mm 0.21 in5.3 mm
02:13 PM 54.1°F12.3°C 53.5°F11.9°C 98% 1.0 mph NE1.6 kmh NE 3.0 mph4.8 kmh 30.14 in1020.7 mb 0.00 in0.0 mm 0.00 in0.0 mm 0.21 in5.3 mm
02:18 PM 54.2°F12.3°C 53.6°F12.0°C 98% 1.0 mph NE1.6 kmh NE 3.0 mph4.8 kmh 30.14 in1020.7 mb 0.00 in0.0 mm 0.00 in0.0 mm 0.21 in5.3 mm
02:23 PM 54.3°F12.4°C 53.7°F12.1°C 98% 1.0 mph NE1.6 kmh NE 2.0 mph3.2 kmh 30.14 in1020.7 mb 0.00 in0.0 mm 0.00 in0.0 mm 0.21 in5.3 mm
02:28 PM 54.5°F12.5°C 53.9°F12.2°C 98% 1.0 mph NE1.6 kmh NE 2.0 mph3.2 kmh 30.14 in1020.7 mb 0.00 in0.0 mm 0.00 in0.0 mm 0.21 in5.3 mm
02:33 PM 54.3°F12.4°C 53.7°F12.1°C 98% 1.5 mph NE2.4 kmh NE 2.0 mph3.2 kmh 30.14 in1020.7 mb 0.00 in0.0 mm 0.00 in0.0 mm 0.21 in5.3 mm
02:38 PM 54.3°F12.4°C 53.7°F12.1°C 98% 1.0 mph N1.6 kmh N 2.0 mph3.2 kmh 30.14 in1020.7 mb 0.00 in0.0 mm 0.00 in0.0 mm 0.21 in5.3 mm
02:43 PM 54.5°F12.5°C 53.9°F12.2°C 98% 1.0 mph NE1.6 kmh NE 2.0 mph3.2 kmh 30.14 in1020.7 mb 0.00 in0.0 mm 0.00 in0.0 mm 0.21 in5.3 mm
02:48 PM 54.5°F12.5°C 53.9°F12.2°C 98% 1.0 mph ENE1.6 kmh ENE 2.0 mph3.2 kmh 30.14 in1020.7 mb 0.00 in0.0 mm 0.00 in0.0 mm 0.21 in5.3 mm
02:53 PM 54.4°F12.4°C 53.8°F12.1°C 98% 1.0 mph NE1.6 kmh NE 2.0 mph3.2 kmh 30.13 in1020.3 mb 0.00 in0.0 mm 0.00 in0.0 mm 0.21 in5.3 mm
02:58 PM 54.5°F12.5°C 53.9°F12.2°C 98% Calm Calm 2.0 mph3.2 kmh 30.13 in1020.3 mb 0.00 in0.0 mm 0.00 in0.0 mm 0.21 in5.3 mm
03:03 PM 54.5°F12.5°C 53.9°F12.2°C 98% Calm Calm 2.0 mph3.2 kmh 30.14 in1020.7 mb 0.00 in0.0 mm 0.00 in0.0 mm 0.21 in5.3 mm
03:07 PM 54.5°F12.5°C 53.9°F12.2°C 98% 1.0 mph NE1.6 kmh NE 2.0 mph3.2 kmh 30.14 in1020.7 mb 0.00 in0.0 mm 0.00 in0.0 mm 0.21 in5.3 mm
03:12 PM 54.5°F12.5°C 53.9°F12.2°C 98% 1.0 mph NE1.6 kmh NE 1.0 mph1.6 kmh 30.14 in1020.7 mb 0.00 in0.0 mm 0.00 in0.0 mm 0.21 in5.3 mm
03:17 PM 54.6°F12.6°C 54.0°F12.2°C 98% Calm Calm 1.0 mph1.6 kmh 30.14 in1020.7 mb 0.00 in0.0 mm 0.00 in0.0 mm 0.21 in5.3 mm
03:22 PM 54.6°F12.6°C 54.0°F12.2°C 98% 1.0 mph ENE1.6 kmh ENE 1.0 mph1.6 kmh 30.15 in1021.0 mb 0.00 in0.0 mm 0.00 in0.0 mm 0.21 in5.3 mm
03:27 PM 54.6°F12.6°C 54.0°F12.2°C 98% Calm Calm 1.0 mph1.6 kmh 30.15 in1021.0 mb 0.00 in0.0 mm 0.00 in0.0 mm 0.21 in5.3 mm
03:32 PM 54.6°F12.6°C 54.0°F12.2°C 98% Calm Calm 1.0 mph1.6 kmh 30.14 in1020.7 mb 0.00 in0.0 mm 0.00 in0.0 mm 0.21 in5.3 mm
03:37 PM 54.6°F12.6°C 54.0°F12.2°C 98% 1.2 mph NE1.9 kmh NE 2.0 mph3.2 kmh 30.14 in1020.7 mb 0.00 in0.0 mm 0.00 in0.0 mm 0.21 in5.3 mm
03:42 PM 54.7°F12.6°C 54.1°F12.3°C 98% 1.4 mph NE2.3 kmh NE 2.0 mph3.2 kmh 30.14 in1020.7 mb 0.00 in0.0 mm 0.00 in0.0 mm 0.21 in5.3 mm
03:47 PM 54.7°F12.6°C 54.1°F12.3°C 98% 2.0 mph NE3.2 kmh NE 4.0 mph6.4 kmh 30.14 in1020.7 mb 0.00 in0.0 mm 0.00 in0.0 mm 0.21 in5.3 mm
03:52 PM 54.8°F12.7°C 54.2°F12.3°C 98% 1.8 mph NE2.9 kmh NE 4.0 mph6.4 kmh 30.14 in1020.7 mb 0.00 in0.0 mm 0.00 in0.0 mm 0.21 in5.3 mm
03:57 PM 55.0°F12.8°C 54.4°F12.4°C 98% 1.0 mph NE1.6 kmh NE 4.0 mph6.4 kmh 30.14 in1020.7 mb 0.00 in0.0 mm 0.00 in0.0 mm 0.21 in5.3 mm
04:02 PM 54.8°F12.7°C 54.2°F12.3°C 98% 1.7 mph NE2.7 kmh NE 4.0 mph6.4 kmh 30.14 in1020.7 mb 0.00 in0.0 mm 0.00 in0.0 mm 0.21 in5.3 mm
04:07 PM 54.8°F12.7°C 54.2°F12.3°C 98% 1.8 mph ENE2.9 kmh ENE 3.0 mph4.8 kmh 30.14 in1020.7 mb 0.00 in0.0 mm 0.00 in0.0 mm 0.21 in5.3 mm
04:12 PM 54.9°F12.7°C 54.3°F12.4°C 98% 1.8 mph NE2.9 kmh NE 6.0 mph9.7 kmh 30.14 in1020.7 mb 0.00 in0.0 mm 0.00 in0.0 mm 0.21 in5.3 mm
04:17 PM 55.0°F12.8°C 54.4°F12.4°C 98% 2.2 mph NE3.5 kmh NE 6.0 mph9.7 kmh 30.14 in1020.7 mb 0.00 in0.0 mm 0.00 in0.0 mm 0.21 in5.3 mm
04:22 PM 55.0°F12.8°C 54.4°F12.4°C 98% 1.8 mph NE2.9 kmh NE 6.0 mph9.7 kmh 30.14 in1020.7 mb 0.00 in0.0 mm 0.00 in0.0 mm 0.21 in5.3 mm
04:27 PM 55.0°F12.8°C 54.4°F12.4°C 98% 1.3 mph ENE2.1 kmh ENE 6.0 mph9.7 kmh 30.14 in1020.7 mb 0.00 in0.0 mm 0.00 in0.0 mm 0.21 in5.3 mm
04:32 PM 55.1°F12.8°C 54.5°F12.5°C 98% 2.1 mph NE3.4 kmh NE 4.0 mph6.4 kmh 30.14 in1020.7 mb 0.00 in0.0 mm 0.00 in0.0 mm 0.21 in5.3 mm
04:37 PM 55.1°F12.8°C 54.5°F12.5°C 98% 1.0 mph NE1.6 kmh NE 4.0 mph6.4 kmh 30.15 in1021.0 mb 0.00 in0.0 mm 0.00 in0.0 mm 0.21 in5.3 mm
04:42 PM 55.1°F12.8°C 54.5°F12.5°C 98% 1.3 mph NE2.1 kmh NE 4.0 mph6.4 kmh 30.15 in1021.0 mb 0.00 in0.0 mm 0.00 in0.0 mm 0.21 in5.3 mm
04:47 PM 55.2°F12.9°C 54.6°F12.6°C 98% 2.2 mph NE3.5 kmh NE 4.0 mph6.4 kmh 30.15 in1021.0 mb 0.00 in0.0 mm 0.00 in0.0 mm 0.21 in5.3 mm
04:52 PM 55.3°F12.9°C 54.7°F12.6°C 98% 1.2 mph NE1.9 kmh NE 4.0 mph6.4 kmh 30.14 in1020.7 mb 0.00 in0.0 mm 0.00 in0.0 mm 0.21 in5.3 mm
04:57 PM 55.3°F12.9°C 54.7°F12.6°C 98% 2.7 mph NE4.3 kmh NE 5.0 mph8.0 kmh 30.15 in1021.0 mb 0.00 in0.0 mm 0.00 in0.0 mm 0.21 in5.3 mm
05:02 PM 55.4°F13.0°C 54.8°F12.7°C 98% 1.9 mph NE3.1 kmh NE 5.0 mph8.0 kmh 30.15 in1021.0 mb 0.00 in0.0 mm 0.00 in0.0 mm 0.21 in5.3 mm
05:07 PM 55.4°F13.0°C 54.8°F12.7°C 98% 1.0 mph NE1.6 kmh NE 5.0 mph8.0 kmh 30.15 in1021.0 mb 0.00 in0.0 mm 0.00 in0.0 mm 0.21 in5.3 mm
05:12 PM 55.5°F13.1°C 54.9°F12.7°C 98% 1.0 mph NE1.6 kmh NE 5.0 mph8.0 kmh 30.16 in1021.3 mb 0.00 in0.0 mm 0.00 in0.0 mm 0.21 in5.3 mm
05:17 PM 55.5°F13.1°C 54.9°F12.7°C 98% 1.3 mph NE2.1 kmh NE 3.0 mph4.8 kmh 30.15 in1021.0 mb 0.00 in0.0 mm 0.00 in0.0 mm 0.21 in5.3 mm
05:22 PM 55.5°F13.1°C 54.9°F12.7°C 98% 1.2 mph E1.9 kmh E 2.0 mph3.2 kmh 30.16 in1021.3 mb 0.00 in0.0 mm 0.00 in0.0 mm 0.21 in5.3 mm
05:27 PM 55.5°F13.1°C 54.9°F12.7°C 98% 1.0 mph ENE1.6 kmh ENE 2.0 mph3.2 kmh 30.15 in1021.0 mb 0.00 in0.0 mm 0.00 in0.0 mm 0.21 in5.3 mm
05:32 PM 55.6°F13.1°C 55.0°F12.8°C 98% 1.4 mph ENE2.3 kmh ENE 2.0 mph3.2 kmh 30.15 in1021.0 mb 0.00 in0.0 mm 0.00 in0.0 mm 0.21 in5.3 mm
05:37 PM 55.6°F13.1°C 55.0°F12.8°C 98% 1.3 mph E2.1 kmh E 2.0 mph3.2 kmh 30.15 in1021.0 mb 0.00 in0.0 mm 0.00 in0.0 mm 0.21 in5.3 mm
05:42 PM 55.6°F13.1°C 55.0°F12.8°C 98% 1.8 mph E2.9 kmh E 3.0 mph4.8 kmh 30.16 in1021.3 mb 0.00 in0.0 mm 0.00 in0.0 mm 0.21 in5.3 mm
05:47 PM 55.6°F13.1°C 55.0°F12.8°C 98% 1.8 mph E2.9 kmh E 4.0 mph6.4 kmh 30.16 in1021.3 mb 0.00 in0.0 mm 0.00 in0.0 mm 0.21 in5.3 mm
05:52 PM 55.5°F13.1°C 54.9°F12.7°C 98% 1.5 mph ENE2.4 kmh ENE 4.0 mph6.4 kmh 30.16 in1021.3 mb 0.00 in0.0 mm 0.00 in0.0 mm 0.21 in5.3 mm
05:57 PM 55.6°F13.1°C 55.0°F12.8°C 98% Calm Calm 4.0 mph6.4 kmh 30.16 in1021.3 mb 0.00 in0.0 mm 0.00 in0.0 mm 0.21 in5.3 mm
06:02 PM 55.5°F13.1°C 54.9°F12.7°C 98% 1.0 mph E1.6 kmh E 4.0 mph6.4 kmh 30.16 in1021.3 mb 0.00 in0.0 mm 0.00 in0.0 mm 0.21 in5.3 mm
06:07 PM 55.6°F13.1°C 55.0°F12.8°C 98% 1.0 mph ENE1.6 kmh ENE 3.0 mph4.8 kmh 30.16 in1021.3 mb 0.00 in0.0 mm 0.00 in0.0 mm 0.21 in5.3 mm
06:12 PM 55.6°F13.1°C 55.0°F12.8°C 98% Calm Calm 2.0 mph3.2 kmh 30.16 in1021.3 mb 0.00 in0.0 mm 0.00 in0.0 mm 0.21 in5.3 mm
06:17 PM 55.6°F13.1°C 55.0°F12.8°C 98% 1.8 mph ENE2.9 kmh ENE 3.0 mph4.8 kmh 30.16 in1021.3 mb 0.00 in0.0 mm 0.00 in0.0 mm 0.21 in5.3 mm
06:22 PM 55.6°F13.1°C 55.0°F12.8°C 98% Calm Calm 3.0 mph4.8 kmh 30.17 in1021.7 mb 0.00 in0.0 mm 0.00 in0.0 mm 0.21 in5.3 mm
06:27 PM 55.6°F13.1°C 55.0°F12.8°C 98% Calm Calm 3.0 mph4.8 kmh 30.17 in1021.7 mb 0.00 in0.0 mm 0.00 in0.0 mm 0.21 in5.3 mm
06:32 PM 55.6°F13.1°C 55.0°F12.8°C 98% 1.0 mph E1.6 kmh E 3.0 mph4.8 kmh 30.17 in1021.7 mb 0.00 in0.0 mm 0.00 in0.0 mm 0.21 in5.3 mm
06:37 PM 55.6°F13.1°C 55.0°F12.8°C 98% 1.0 mph E1.6 kmh E 1.0 mph1.6 kmh 30.17 in1021.7 mb 0.00 in0.0 mm 0.00 in0.0 mm 0.21 in5.3 mm
06:42 PM 55.6°F13.1°C 55.0°F12.8°C 98% 1.8 mph E2.9 kmh E 3.0 mph4.8 kmh 30.17 in1021.7 mb 0.00 in0.0 mm 0.00 in0.0 mm 0.21 in5.3 mm
06:47 PM 55.6°F13.1°C 55.0°F12.8°C 98% 1.2 mph E1.9 kmh E 3.0 mph4.8 kmh 30.17 in1021.7 mb 0.00 in0.0 mm 0.00 in0.0 mm 0.21 in5.3 mm
06:52 PM 55.6°F13.1°C 55.0°F12.8°C 98% 1.0 mph E1.6 kmh E 3.0 mph4.8 kmh 30.17 in1021.7 mb 0.00 in0.0 mm 0.00 in0.0 mm 0.21 in5.3 mm
06:57 PM 55.6°F13.1°C 55.0°F12.8°C 98% 1.1 mph E1.8 kmh E 3.0 mph4.8 kmh 30.17 in1021.7 mb 0.00 in0.0 mm 0.00 in0.0 mm 0.21 in5.3 mm
07:02 PM 55.6°F13.1°C 55.0°F12.8°C 98% 1.0 mph ENE1.6 kmh ENE 2.0 mph3.2 kmh 30.17 in1021.7 mb 0.00 in0.0 mm 0.00 in0.0 mm 0.21 in5.3 mm
07:07 PM 55.6°F13.1°C 55.0°F12.8°C 98% 1.8 mph E2.9 kmh E 3.0 mph4.8 kmh 30.17 in1021.7 mb 0.00 in0.0 mm 0.00 in0.0 mm 0.21 in5.3 mm
07:12 PM 55.6°F13.1°C 55.0°F12.8°C 98% 1.9 mph E3.1 kmh E 4.0 mph6.4 kmh 30.17 in1021.7 mb 0.00 in0.0 mm 0.00 in0.0 mm 0.21 in5.3 mm
07:17 PM 55.6°F13.1°C 55.0°F12.8°C 98% 1.3 mph E2.1 kmh E 4.0 mph6.4 kmh 30.17 in1021.7 mb 0.00 in0.0 mm 0.00 in0.0 mm 0.21 in5.3 mm
07:22 PM 55.6°F13.1°C 55.0°F12.8°C 98% 1.0 mph E1.6 kmh E 4.0 mph6.4 kmh 30.17 in1021.7 mb 0.00 in0.0 mm 0.00 in0.0 mm 0.21 in5.3 mm
07:27 PM 55.6°F13.1°C 55.3°F12.9°C 99% 1.1 mph E1.8 kmh E 4.0 mph6.4 kmh 30.17 in1021.7 mb 0.00 in0.0 mm 0.00 in0.0 mm 0.21 in5.3 mm
07:32 PM 55.6°F13.1°C 55.3°F12.9°C 99% 1.4 mph E2.3 kmh E 3.0 mph4.8 kmh 30.17 in1021.7 mb 0.00 in0.0 mm 0.00 in0.0 mm 0.21 in5.3 mm
07:37 PM 55.6°F13.1°C 55.3°F12.9°C 99% Calm Calm 3.0 mph4.8 kmh 30.17 in1021.7 mb 0.00 in0.0 mm 0.00 in0.0 mm 0.21 in5.3 mm
07:42 PM 55.6°F13.1°C 55.3°F12.9°C 99% 1.0 mph ENE1.6 kmh ENE 3.0 mph4.8 kmh 30.17 in1021.7 mb 0.00 in0.0 mm 0.00 in0.0 mm 0.21 in5.3 mm
07:47 PM 55.6°F13.1°C 55.3°F12.9°C 99% 1.2 mph E1.9 kmh E 3.0 mph4.8 kmh 30.17 in1021.7 mb 0.00 in0.0 mm 0.00 in0.0 mm 0.21 in5.3 mm
07:52 PM 55.7°F13.2°C 55.4°F13.0°C 99% Calm Calm 2.0 mph3.2 kmh 30.17 in1021.7 mb 0.00 in0.0 mm 0.00 in0.0 mm 0.21 in5.3 mm
07:57 PM 55.7°F13.2°C 55.4°F13.0°C 99% 1.8 mph E2.9 kmh E 4.0 mph6.4 kmh 30.17 in1021.7 mb 0.00 in0.0 mm 0.00 in0.0 mm 0.21 in5.3 mm
08:02 PM 55.7°F13.2°C 55.4°F13.0°C 99% 1.0 mph NE1.6 kmh NE 4.0 mph6.4 kmh 30.17 in1021.7 mb 0.00 in0.0 mm 0.00 in0.0 mm 0.21 in5.3 mm
08:07 PM 55.7°F13.2°C 55.4°F13.0°C 99% Calm Calm 4.0 mph6.4 kmh 30.18 in1022.0 mb 0.00 in0.0 mm 0.00 in0.0 mm 0.21 in5.3 mm
08:12 PM 55.7°F13.2°C 55.4°F13.0°C 99% 1.0 mph E1.6 kmh E 4.0 mph6.4 kmh 30.18 in1022.0 mb 0.00 in0.0 mm 0.00 in0.0 mm 0.21 in5.3 mm
08:17 PM 55.7°F13.2°C 55.4°F13.0°C 99% 1.0 mph E1.6 kmh E 2.0 mph3.2 kmh 30.18 in1022.0 mb 0.00 in0.0 mm 0.00 in0.0 mm 0.21 in5.3 mm
08:23 PM 55.7°F13.2°C 55.4°F13.0°C 99% 1.0 mph ENE1.6 kmh ENE 1.0 mph1.6 kmh 30.18 in1022.0 mb 0.00 in0.0 mm 0.00 in0.0 mm 0.21 in5.3 mm
08:27 PM 55.7°F13.2°C 55.4°F13.0°C 99% 1.1 mph NE1.8 kmh NE 2.0 mph3.2 kmh 30.17 in1021.7 mb 0.00 in0.0 mm 0.00 in0.0 mm 0.21 in5.3 mm
08:32 PM 55.7°F13.2°C 55.4°F13.0°C 99% 1.0 mph NE1.6 kmh NE 2.0 mph3.2 kmh 30.18 in1022.0 mb 0.00 in0.0 mm 0.00 in0.0 mm 0.21 in5.3 mm
08:37 PM 55.7°F13.2°C 55.4°F13.0°C 99% 1.0 mph ENE1.6 kmh ENE 2.0 mph3.2 kmh 30.18 in1022.0 mb 0.00 in0.0 mm 0.00 in0.0 mm 0.21 in5.3 mm
08:42 PM 55.8°F13.2°C 55.5°F13.1°C 99% Calm Calm 2.0 mph3.2 kmh 30.18 in1022.0 mb 0.00 in0.0 mm 0.00 in0.0 mm 0.21 in5.3 mm
08:47 PM 55.8°F13.2°C 55.5°F13.1°C 99% Calm Calm 2.0 mph3.2 kmh 30.18 in1022.0 mb 0.00 in0.0 mm 0.00 in0.0 mm 0.21 in5.3 mm
08:52 PM 55.8°F13.2°C 55.5°F13.1°C 99% 1.3 mph E2.1 kmh E 2.0 mph3.2 kmh 30.18 in1022.0 mb 0.00 in0.0 mm 0.00 in0.0 mm 0.21 in5.3 mm
08:57 PM 55.8°F13.2°C 55.5°F13.1°C 99% 1.6 mph ENE2.6 kmh ENE 3.0 mph4.8 kmh 30.18 in1022.0 mb 0.00 in0.0 mm 0.00 in0.0 mm 0.21 in5.3 mm
09:03 PM 55.8°F13.2°C 55.5°F13.1°C 99% 1.4 mph NE2.3 kmh NE 4.0 mph6.4 kmh 30.18 in1022.0 mb 0.00 in0.0 mm 0.00 in0.0 mm 0.21 in5.3 mm
09:06 PM 55.8°F13.2°C 55.5°F13.1°C 99% 1.2 mph NE1.9 kmh NE 4.0 mph6.4 kmh 30.18 in1022.0 mb 0.00 in0.0 mm 0.00 in0.0 mm 0.21 in5.3 mm
09:11 PM 55.8°F13.2°C 55.5°F13.1°C 99% 1.7 mph NE2.7 kmh NE 4.0 mph6.4 kmh 30.19 in1022.4 mb 0.00 in0.0 mm 0.00 in0.0 mm 0.21 in5.3 mm
09:16 PM 55.8°F13.2°C 55.5°F13.1°C 99% 1.0 mph E1.6 kmh E 4.0 mph6.4 kmh 30.19 in1022.4 mb 0.00 in0.0 mm 0.00 in0.0 mm 0.21 in5.3 mm
09:21 PM 55.8°F13.2°C 55.5°F13.1°C 99% 2.2 mph ENE3.5 kmh ENE 3.0 mph4.8 kmh 30.18 in1022.0 mb 0.00 in0.0 mm 0.00 in0.0 mm 0.21 in5.3 mm
09:26 PM 55.8°F13.2°C 55.5°F13.1°C 99% Calm Calm 3.0 mph4.8 kmh 30.19 in1022.4 mb 0.00 in0.0 mm 0.00 in0.0 mm 0.21 in5.3 mm
09:31 PM 55.8°F13.2°C 55.5°F13.1°C 99% 1.0 mph ENE1.6 kmh ENE 3.0 mph4.8 kmh 30.18 in1022.0 mb 0.00 in0.0 mm 0.00 in0.0 mm 0.21 in5.3 mm
09:36 PM 55.8°F13.2°C 55.5°F13.1°C 99% 1.0 mph E1.6 kmh E 3.0 mph4.8 kmh 30.18 in1022.0 mb 0.00 in0.0 mm 0.00 in0.0 mm 0.21 in5.3 mm
09:41 PM 55.8°F13.2°C 55.5°F13.1°C 99% Calm Calm 1.0 mph1.6 kmh 30.19 in1022.4 mb 0.00 in0.0 mm 0.00 in0.0 mm 0.21 in5.3 mm
09:46 PM 55.8°F13.2°C 55.5°F13.1°C 99% 1.0 mph ENE1.6 kmh ENE 1.0 mph1.6 kmh 30.18 in1022.0 mb 0.00 in0.0 mm 0.00 in0.0 mm 0.21 in5.3 mm
09:51 PM 55.8°F13.2°C 55.5°F13.1°C 99% 1.6 mph E2.6 kmh E 3.0 mph4.8 kmh 30.18 in1022.0 mb 0.00 in0.0 mm 0.00 in0.0 mm 0.21 in5.3 mm
09:56 PM 55.8°F13.2°C 55.5°F13.1°C 99% 2.0 mph E3.2 kmh E 4.0 mph6.4 kmh 30.19 in1022.4 mb 0.00 in0.0 mm 0.00 in0.0 mm 0.21 in5.3 mm
10:01 PM 55.8°F13.2°C 55.5°F13.1°C 99% 2.1 mph E3.4 kmh E 4.0 mph6.4 kmh 30.18 in1022.0 mb 0.00 in0.0 mm 0.00 in0.0 mm 0.21 in5.3 mm
10:06 PM 55.8°F13.2°C 55.5°F13.1°C 99% 2.8 mph E4.5 kmh E 4.0 mph6.4 kmh 30.18 in1022.0 mb 0.00 in0.0 mm 0.00 in0.0 mm 0.21 in5.3 mm
10:11 PM 55.8°F13.2°C 55.5°F13.1°C 99% 1.6 mph E2.6 kmh E 4.0 mph6.4 kmh 30.18 in1022.0 mb 0.00 in0.0 mm 0.00 in0.0 mm 0.21 in5.3 mm
10:16 PM 55.8°F13.2°C 55.5°F13.1°C 99% 1.0 mph ENE1.6 kmh ENE 4.0 mph6.4 kmh 30.18 in1022.0 mb 0.00 in0.0 mm 0.00 in0.0 mm 0.21 in5.3 mm
10:21 PM 55.8°F13.2°C 55.5°F13.1°C 99% 1.3 mph E2.1 kmh E 4.0 mph6.4 kmh 30.18 in1022.0 mb 0.00 in0.0 mm 0.00 in0.0 mm 0.21 in5.3 mm
10:26 PM 55.8°F13.2°C 55.5°F13.1°C 99% 1.0 mph E1.6 kmh E 4.0 mph6.4 kmh 30.18 in1022.0 mb 0.00 in0.0 mm 0.00 in0.0 mm 0.21 in5.3 mm
10:31 PM 55.8°F13.2°C 55.5°F13.1°C 99% 1.1 mph E1.8 kmh E 3.0 mph4.8 kmh 30.18 in1022.0 mb 0.00 in0.0 mm 0.00 in0.0 mm 0.21 in5.3 mm
10:36 PM 55.8°F13.2°C 55.5°F13.1°C 99% Calm Calm 2.0 mph3.2 kmh 30.18 in1022.0 mb 0.00 in0.0 mm 0.00 in0.0 mm 0.21 in5.3 mm
10:41 PM 55.8°F13.2°C 55.5°F13.1°C 99% Calm Calm 2.0 mph3.2 kmh 30.18 in1022.0 mb 0.00 in0.0 mm 0.00 in0.0 mm 0.21 in5.3 mm
10:46 PM 55.8°F13.2°C 55.5°F13.1°C 99% 1.0 mph E1.6 kmh E 2.0 mph3.2 kmh 30.18 in1022.0 mb 0.00 in0.0 mm 0.00 in0.0 mm 0.21 in5.3 mm
10:51 PM 55.8°F13.2°C 55.5°F13.1°C 99% 1.7 mph E2.7 kmh E 3.0 mph4.8 kmh 30.18 in1022.0 mb 0.00 in0.0 mm 0.00 in0.0 mm 0.21 in5.3 mm
10:56 PM 55.8°F13.2°C 55.5°F13.1°C 99% 1.2 mph E1.9 kmh E 3.0 mph4.8 kmh 30.18 in1022.0 mb 0.00 in0.0 mm 0.00 in0.0 mm 0.21 in5.3 mm
11:01 PM 55.8°F13.2°C 55.5°F13.1°C 99% 1.3 mph E2.1 kmh E 3.0 mph4.8 kmh 30.18 in1022.0 mb 0.01 in0.3 mm 0.01 in0.3 mm 0.22 in5.6 mm
11:06 PM 55.8°F13.2°C 55.5°F13.1°C 99% 1.0 mph ESE1.6 kmh ESE 3.0 mph4.8 kmh 30.18 in1022.0 mb 0.01 in0.3 mm 0.00 in0.0 mm 0.22 in5.6 mm
11:11 PM 55.8°F13.2°C 55.5°F13.1°C 99% Calm Calm 2.0 mph3.2 kmh 30.18 in1022.0 mb 0.01 in0.3 mm 0.00 in0.0 mm 0.22 in5.6 mm
11:16 PM 55.9°F13.3°C 55.6°F13.1°C 99% 1.0 mph ENE1.6 kmh ENE 2.0 mph3.2 kmh 30.17 in1021.7 mb 0.01 in0.3 mm 0.00 in0.0 mm 0.22 in5.6 mm
11:21 PM 55.8°F13.2°C 55.5°F13.1°C 99% 1.0 mph E1.6 kmh E 1.0 mph1.6 kmh 30.17 in1021.7 mb 0.01 in0.3 mm 0.00 in0.0 mm 0.22 in5.6 mm
11:26 PM 55.8°F13.2°C 55.5°F13.1°C 99% 1.3 mph ENE2.1 kmh ENE 2.0 mph3.2 kmh 30.17 in1021.7 mb 0.01 in0.3 mm 0.00 in0.0 mm 0.22 in5.6 mm
11:31 PM 55.8°F13.2°C 55.5°F13.1°C 99% 1.0 mph E1.6 kmh E 2.0 mph3.2 kmh 30.17 in1021.7 mb 0.01 in0.3 mm 0.00 in0.0 mm 0.22 in5.6 mm
11:37 PM 55.9°F13.3°C 55.6°F13.1°C 99% 1.0 mph E1.6 kmh E 2.0 mph3.2 kmh 30.17 in1021.7 mb 0.01 in0.3 mm 0.00 in0.0 mm 0.22 in5.6 mm
11:42 PM 55.8°F13.2°C 55.5°F13.1°C 99% 1.7 mph E2.7 kmh E 3.0 mph4.8 kmh 30.17 in1021.7 mb 0.01 in0.3 mm 0.00 in0.0 mm 0.22 in5.6 mm
11:47 PM 55.9°F13.3°C 55.6°F13.1°C 99% 1.0 mph E1.6 kmh E 3.0 mph4.8 kmh 30.17 in1021.7 mb 0.01 in0.3 mm 0.00 in0.0 mm 0.22 in5.6 mm
11:51 PM 55.9°F13.3°C 55.6°F13.1°C 99% 1.0 mph SE1.6 kmh SE 3.0 mph4.8 kmh 30.17 in1021.7 mb 0.01 in0.3 mm 0.00 in0.0 mm 0.22 in5.6 mm
11:57 PM 55.9°F13.3°C 55.6°F13.1°C 99% 1.0 mph SE1.6 kmh SE 3.0 mph4.8 kmh 30.17 in1021.7 mb 0.01 in0.3 mm 0.00 in0.0 mm 0.22 in5.6 mm